Hlavní strana
METAR-TAF:

METAR-TAF

Letiště :

Gainesville, Florida, Spojené státy americké

zeměpisná šířka: 29-41-31N, zeměpisná délka: 082-16-32W, výška: 46 m

Aktuální stav počasí

Zpráva byla vytvořena před 14 minutami, v 11:53 UTC
Bezvětří
Teplota 25°C
Vlhkost vzduchu 79%
Tlak 1023 hPa
Viditelnost: 14.5 km
Jasno

METAR: KGNV 261153Z 00000KT 9SM CLR 25/21 A3021 RMK AO2 SLP225 T02500211 10250 20206 51021

Čas: 08:07 (12:07 UTC)

Předpověď počasí

Zpráva byla vytvořena před 47 minutami, v 11:20 UTC
Předpověď platná od 26 v 12 UTC do 27 v 12 UTC
vítr z různých směrů 3 kt
Viditelnost: 10 km
Jasno
Od 26 v 1800 UTC
Východojihovýchodní vítr 5 kt
Viditelnost: 10 km
Skoro jasno ve výšce 6000 ft
Od 27 v 0100 UTC
vítr z různých směrů 3 kt
Viditelnost: 10 km
Jasno

TAF: KGNV 261120Z 2612/2712 VRB03KT P6SM SKC FM261800 12005KT P6SM FEW060 FM270100 VRB03KT P6SM SKC

Stav a předpovědi počasí z více než 4 000 letišť (zprávy METAR a TAF).

Červené a žluté tečky na mapě představují dostupné meteorologické stanice.

Když kurzor umístíte na tečku, zobrazí se název stanice.

Pak kliknutím zobrazíte stav a předpověď počasí.

Chcete-li změnit mapu, kliknutím na zelené tlačítko se znaménkem +mapu přiblížíte, kliknutím na zelené tlačítko se znaménkem – mapu oddálíte a kliknutím na zelené šipky přejdete na sousední mapy.


METAR-TAF: